Date,TemperatureHighF,TemperatureAvgF,TemperatureLowF,DewpointHighF,DewpointAvgF,DewpointLowF,HumidityHigh,HumidityAvg,HumidityLow,PressureMaxIn,PressureMinIn,WindSpeedMaxMPH,WindSpeedAvgMPH,GustSpeedMaxMPH,PrecipitationSumIn
2014-1-1,34,20,13,13,8,6,79,61,37,30.30,30.08,7,1,15,0.00
2014-1-2,18,10,0,15,7,-7,92,87,79,30.27,29.81,7,2,18,0.00
2014-1-3,18,5,-5,11,-1,-12,93,77,56,30.31,29.67,9,4,22,0.00
2014-1-4,29,10,-9,13,-2,-14,82,62,27,30.40,29.96,5,1,11,0.00
2014-1-5,43,28,10,33,20,6,99,74,42,30.22,29.85,3,0,7,0.00
2014-1-6,56,38,27,56,37,18,99,95,68,29.84,29.17,5,1,13,0.00
2014-1-7,27,14,7,18,-3,-12,71,47,34,30.08,29.40,0,0,4,0.00
2014-1-8,26,15,4,6,1,-12,69,55,37,30.35,30.07,0,0,1,0.00
2014-1-9,37,20,9,14,8,4,87,60,34,30.55,30.32,6,1,14,0.00
2014-1-10,34,23,7,32,22,5,99,94,88,30.51,30.17,1,0,2,0.00
2014-1-11,56,41,32,56,41,32,99,99,99,30.17,29.16,5,0,12,0.00
2014-1-12,52,43,33,52,35,28,99,76,50,29.86,29.16,7,2,20,0.00
2014-1-13,56,40,28,40,32,26,99,76,41,30.02,29.79,5,0,11,0.00
2014-1-14,48,43,38,48,43,38,99,98,90,29.79,29.51,3,0,7,0.00
2014-1-15,52,38,29,47,35,29,99,92,62,29.92,29.65,5,0,7,0.00
2014-1-16,39,34,29,39,34,29,99,99,99,29.84,29.75,2,0,5,0.00
2014-1-17,50,36,28,40,31,26,99,85,44,29.88,29.80,3,0,9,0.00
2014-1-18,34,32,28,34,31,28,99,99,97,29.82,29.53,1,0,6,0.00
2014-1-19,33,30,28,32,28,24,99,92,83,29.62,29.43,5,0,12,0.00
2014-1-20,47,34,21,34,27,11,99,79,55,29.78,29.38,8,1,18,0.00
2014-1-21,20,13,10,10,3,-5,87,63,44,29.98,29.78,6,2,16,0.00
2014-1-22,20,10,5,7,-2,-7,87,57,40,29.81,29.56,10,4,21,0.00
2014-1-23,30,12,0,4,-5,-9,67,49,28,30.05,29.79,7,1,15,0.00
2014-1-24,27,11,2,0,-4,-9,73,53,28,30.17,29.93,6,1,16,0.00
2014-1-25,37,24,9,28,14,-2,94,67,50,29.93,29.23,7,2,23,0.00
2014-1-26,26,20,13,19,3,-6,82,50,27,29.78,29.24,10,2,21,0.00
2014-1-27,46,26,18,41,16,4,99,67,38,29.88,29.40,7,1,22,0.00
2014-1-28,26,16,9,5,-5,-10,54,40,24,30.20,29.89,6,1,15,0.00
2014-1-29,33,20,14,7,-2,-9,69,41,19,30.13,29.86,5,1,13,0.00
2014-1-30,37,20,8,11,4,-5,75,51,30,30.34,30.09,3,1,10,0.00
2014-1-31,48,30,14,25,19,7,96,66,32,30.10,29.86,3,0,12,0.00
2014-2-1,49,36,24,31,26,21,91,70,41,30.25,29.94,5,0,8,0.00
2014-2-2,51,37,30,43,36,29,99,94,64,29.96,29.76,2,0,6,0.00
2014-2-3,34,30,19,34,28,19,99,91,65,30.20,29.96,5,0,10,0.00
2014-2-4,44,27,14,30,22,13,99,82,47,30.37,30.19,2,0,6,0.00
2014-2-5,28,26,23,27,25,23,99,97,88,30.20,29.56,6,2,15,0.00
2014-2-6,38,21,11,23,14,9,99,77,40,30.18,29.86,7,1,14,0.00
2014-2-7,38,20,4,19,10,3,95,69,38,30.15,30.04,5,1,14,0.00
2014-2-8,40,24,11,14,7,0,75,51,26,30.20,30.03,5,1,12,0.00
2014-2-9,37,26,20,25,16,9,99,68,43,30.08,29.85,5,1,10,0.00
2014-2-10,36,22,8,24,14,3,99,73,41,30.11,29.80,9,1,18,0.00
2014-2-11,35,15,0,14,4,-2,91,64,34,30.35,30.11,8,1,17,0.00
2014-2-12,37,17,1,9,0,-7,70,50,22,30.47,30.33,6,1,18,0.00
2014-2-13,33,24,12,33,21,4,99,88,70,30.32,28.95,8,2,20,0.00
2014-2-14,35,32,26,33,29,24,99,90,78,29.62,28.74,7,2,20,0.00
2014-2-15,36,28,21,31,27,21,99,95,76,29.75,29.41,8,1,20,0.00
2014-2-16,39,27,19,29,16,9,99,66,41,29.88,29.40,9,3,26,0.00
2014-2-17,36,20,7,8,1,-2,65,43,26,30.27,29.88,12,3,24,0.00
2014-2-18,26,16,4,26,12,-4,99,82,60,30.28,29.82,5,1,9,0.00
2014-2-19,36,26,13,32,25,13,99,95,78,30.00,29.64,2,0,6,0.00
2014-2-20,55,36,20,39,30,19,99,82,43,30.14,29.73,5,0,9,0.00
2014-2-21,39,36,30,39,35,30,99,99,98,30.07,29.57,2,0,8,0.00
2014-2-22,59,40,28,44,30,26,99,73,34,29.85,29.72,8,1,21,0.00
2014-2-23,50,37,26,37,30,18,99,79,47,29.89,29.66,2,0,10,0.00
2014-2-24,44,32,22,32,18,8,96,58,38,29.84,29.64,9,2,21,0.00
2014-2-25,35,23,15,14,8,5,79,54,33,29.88,29.77,8,2,20,0.00
2014-2-26,35,19,8,14,3,-7,81,52,30,29.83,29.65,8,1,18,0.00
2014-2-27,33,18,7,19,2,-6,75,51,25,29.80,29.48,8,1,21,0.00
2014-2-28,31,16,5,-3,-7,-12,57,37,17,30.36,29.80,7,1,16,0.00
2014-3-1,37,21,2,21,6,-7,72,53,28,30.36,29.98,5,1,12,0.00
2014-3-2,46,34,26,28,22,14,76,63,49,29.97,29.86,6,1,15,0.00
2014-3-3,26,20,9,15,3,-7,61,48,33,30.20,29.91,10,3,18,0.00
2014-3-4,31,20,2,11,0,-6,71,45,23,30.29,30.14,5,1,10,0.00
2014-3-5,26,22,16,20,15,5,85,73,55,30.42,30.15,7,1,13,0.00
2014-3-6,38,19,6,5,-1,-8,65,44,16,30.56,30.42,6,1,14,0.00
2014-3-7,41,23,1,25,11,-4,82,61,37,30.43,29.86,5,1,8,0.00
2014-3-8,64,38,20,36,26,18,93,64,33,29.86,29.58,10,2,22,0.00
2014-3-9,136,34,25,92,15,8,64,46,26,29.85,29.76,9,2,21,0.00
2014-3-10,45,35,28,30,24,12,93,64,45,29.79,29.52,7,0,11,0.00
2014-3-11,61,43,29,39,32,28,98,69,37,29.62,29.40,6,1,15,0.00
2014-3-12,46,38,35,40,36,31,99,90,76,29.63,28.94,7,1,15,0.00
2014-3-13,36,22,15,35,14,1,99,75,49,29.84,28.92,12,1,27,0.00
2014-3-14,39,26,8,25,10,-2,76,52,34,30.07,29.80,5,1,13,0.00
2014-3-15,60,44,35,41,32,24,97,66,41,29.80,29.54,8,2,21,0.00
2014-3-16,40,31,22,24,10,1,65,42,26,30.12,29.78,10,3,21,0.00
2014-3-17,35,23,14,4,-1,-5,53,37,23,30.11,29.95,8,2,15,0.00
2014-3-18,43,26,12,20,8,2,79,49,24,30.27,30.07,5,1,8,0.00
2014-3-19,46,32,18,33,25,17,98,76,48,30.31,29.91,6,1,12,0.00
2014-3-20,54,40,33,46,34,29,99,81,52,29.92,29.50,9,1,17,0.00
2014-3-21,43,38,30,29,25,22,72,60,48,29.93,29.63,7,2,20,0.00
2014-3-22,54,37,24,43,27,20,93,68,43,29.97,29.55,9,1,29,0.00
2014-3-23,48,35,22,29,19,2,85,55,31,30.00,29.82,9,2,21,0.00
2014-3-24,37,24,14,7,1,-1,59,38,22,30.08,29.95,10,3,21,0.00
2014-3-25,42,28,14,19,10,6,76,50,27,30.06,29.84,6,1,15,0.00
2014-3-26,35,30,23,19,12,0,64,46,30,29.93,29.52,16,6,38,0.00
2014-3-27,46,32,18,17,5,-1,49,34,20,30.23,29.93,9,2,21,0.00
2014-3-28,55,44,35,52,35,15,99,72,41,30.14,29.84,7,1,16,0.00
2014-3-29,55,44,37,47,41,36,99,91,65,30.16,29.91,6,1,14,0.56
2014-3-30,40,39,36,40,39,36,99,99,99,29.91,29.56,7,3,17,1.98
2014-3-31,42,37,34,39,35,27,99,92,76,29.93,29.61,9,4,20,1.38
2014-4-1,61,44,32,39,33,29,89,67,40,30.02,29.91,7,2,17,0.00
2014-4-2,62,43,28,40,34,28,99,72,41,30.03,29.90,5,1,8,0.00
2014-4-3,61,42,26,39,30,26,99,67,33,30.05,29.94,9,2,17,0.00
2014-4-4,52,41,33,38,32,29,99,74,49,30.08,29.82,7,2,15,0.25
2014-4-5,55,42,37,48,36,26,99,79,52,29.83,29.60,6,2,18,0.14
2014-4-6,62,45,33,29,26,23,70,50,25,30.08,29.83,9,2,21,0.00
2014-4-7,63,47,30,42,30,23,97,57,27,30.14,29.83,7,1,15,0.02
2014-4-8,68,52,43,63,48,36,99,87,59,29.83,29.18,8,2,25,0.40
2014-4-9,62,47,34,42,32,16,99,60,30,31.09,29.40,12,3,24,0.00
2014-4-10,67,47,26,35,25,16,81,46,20,30.05,29.86,7,2,18,0.00
2014-4-11,77,59,49,56,46,36,99,65,41,29.92,29.80,6,1,17,0.08
2014-4-12,73,56,41,49,42,35,99,66,29,30.10,29.88,6,1,16,0.06
2014-4-13,58,48,42,49,44,36,99,85,69,30.18,29.93,5,1,10,0.02
2014-4-14,81,61,40,64,53,39,99,78,49,29.94,29.74,10,3,21,0.00
2014-4-15,68,62,42,66,61,41,99,97,87,29.79,29.43,8,4,23,0.61
2014-4-16,48,37,29,41,26,19,99,66,38,30.52,29.62,14,4,29,0.32
2014-4-17,45,35,27,27,23,18,92,64,45,30.72,30.53,8,2,14,0.00
2014-4-18,51,38,26,35,32,25,99,80,54,30.58,30.16,5,1,9,0.00
2014-4-19,66,48,31,42,35,28,99,66,34,30.32,30.07,10,3,21,0.00
2014-4-20,59,45,29,33,27,22,91,54,26,30.43,30.24,5,1,11,0.00
2014-4-21,75,54,32,38,32,27,99,52,19,30.24,29.72,6,1,14,0.00
2014-4-22,80,61,43,56,45,33,99,59,33,29.72,29.35,6,1,17,0.02
2014-4-23,56,52,46,56,47,35,99,85,63,29.52,29.32,15,4,35,0.44
2014-4-24,61,50,41,35,30,23,65,47,33,29.82,29.51,15,7,33,0.02
2014-4-25,70,53,35,38,32,26,80,49,21,29.92,29.70,7,1,16,0.00
2014-4-26,52,45,42,45,42,36,99,88,56,29.78,29.67,3,1,8,0.27
2014-4-27,56,46,41,48,43,41,99,91,68,29.96,29.75,6,1,13,0.15
2014-4-28,63,50,38,45,42,38,99,76,50,30.15,29.90,7,2,16,0.00
2014-4-29,48,43,41,43,39,36,98,84,76,30.44,30.15,6,2,15,0.00
2014-4-30,47,42,40,43,41,39,99,96,80,30.45,30.09,5,1,12,0.50
2014-5-1,67,51,42,63,51,42,99,98,85,30.09,29.55,5,1,8,0.72
2014-5-2,71,58,47,54,48,44,99,73,40,29.70,29.56,5,1,16,0.00
2014-5-3,70,58,45,53,47,44,99,72,43,29.76,29.61,5,1,11,0.01
2014-5-4,63,55,49,53,44,33,98,70,38,30.10,29.43,7,2,22,0.01
2014-5-5,69,57,50,48,45,42,83,65,45,29.76,29.51,10,4,22,0.00
2014-5-6,68,54,41,44,38,31,95,57,32,29.94,29.73,10,2,26,0.00
2014-5-7,74,56,38,39,34,28,77,47,22,30.08,29.94,8,1,17,0.00
2014-5-8,77,58,39,49,41,30,86,57,31,30.10,29.95,3,1,12,0.00
2014-5-9,55,53,51,52,50,47,99,90,76,30.15,29.98,3,0,6,0.01
2014-5-10,84,64,52,72,61,52,99,90,52,29.98,29.62,6,1,14,0.04
2014-5-11,86,71,60,65,49,41,99,50,22,29.92,29.67,9,2,21,0.00
2014-5-12,91,71,50,56,50,44,88,51,27,30.02,29.84,6,1,16,0.00
2014-5-13,58,52,47,48,45,40,89,78,67,30.24,30.03,6,1,13,0.00
2014-5-14,76,58,46,56,49,41,90,73,47,30.25,30.14,5,1,11,0.00
2014-5-15,83,68,60,70,64,54,99,86,63,30.18,30.09,5,1,15,0.00
2014-5-16,74,67,65,70,66,64,99,97,85,30.10,29.85,6,1,14,0.33
2014-5-17,78,67,54,67,57,42,99,74,38,29.96,29.72,5,1,15,0.44
2014-5-18,77,60,46,51,44,37,94,58,30,30.02,29.90,7,2,13,0.00
2014-5-19,69,58,48,51,42,36,90,56,37,30.00,29.91,12,2,25,0.00
2014-5-20,80,63,46,52,49,46,99,65,36,29.93,29.82,9,2,23,0.00
2014-5-21,79,62,47,59,54,47,99,78,43,29.91,29.80,3,1,8,0.00
2014-5-22,68,58,52,60,56,52,99,95,68,29.85,29.76,2,0,8,0.20
2014-5-23,61,56,52,61,56,52,99,99,92,29.91,29.77,2,0,8,0.04
2014-5-24,72,58,52,62,56,51,99,94,62,29.96,29.86,3,0,8,0.13
2014-5-25,78,61,53,64,58,53,99,89,57,30.00,29.89,2,0,8,0.02
2014-5-26,79,66,52,67,61,52,99,85,59,29.89,29.68,3,0,13,0.02
2014-5-27,72,59,48,68,58,48,99,96,84,29.88,29.70,3,1,11,0.44
2014-5-28,70,48,42,70,48,35,99,99,81,30.14,29.83,6,1,15,0.12
2014-5-29,73,54,41,54,46,41,99,78,41,30.16,30.04,3,0,8,0.00
2014-5-30,80,59,45,60,53,43,99,82,42,30.05,29.88,5,0,10,0.00
2014-5-31,70,58,46,58,51,39,99,81,51,30.21,29.95,3,1,13,0.00
2014-6-1,85,62,44,59,50,44,99,69,34,30.25,30.12,3,1,8,0.00
2014-6-2,89,69,49,62,56,48,99,69,38,30.13,29.87,3,0,8,0.00
2014-6-3,86,69,55,67,61,55,99,78,45,29.92,29.78,3,0,13,0.00
2014-6-4,68,62,57,64,60,53,99,92,73,29.82,29.66,2,0,5,0.01
2014-6-5,64,60,56,64,59,56,99,99,88,29.78,29.55,2,0,8,0.38
2014-6-6,78,64,55,65,60,55,99,86,57,29.77,29.59,7,1,14,0.01
2014-6-7,89,70,54,66,61,53,99,77,43,29.83,29.75,5,1,14,0.00
2014-6-8,91,72,56,68,63,55,99,77,43,29.86,29.75,3,0,8,0.00
2014-6-9,84,69,60,72,65,60,99,87,66,29.88,29.76,5,0,8,0.00
2014-6-10,83,70,62,76,67,60,99,93,73,30.02,29.82,3,0,12,0.01
2014-6-11,77,65,56,62,57,51,99,78,54,30.09,30.01,7,0,11,0.00
2014-6-12,71,64,59,65,61,54,99,91,77,30.09,29.96,3,0,9,0.25
2014-6-13,64,61,3,64,61,2,99,99,81,29.97,29.70,98,1,98,1.12
2014-6-14,80,65,59,72,64,58,99,95,69,29.81,29.70,3,0,13,0.01
2014-6-15,83,64,7,65,55,6,99,76,47,29.96,29.81,7,2,17,0.09
2014-6-16,89,69,54,63,58,53,99,72,38,30.05,29.90,2,0,8,0.00
2014-6-17,90,75,64,78,69,61,99,83,57,29.95,29.74,2,0,7,0.00
2014-6-18,88,77,68,76,70,66,99,81,54,29.83,29.61,8,2,21,0.07
2014-6-19,88,74,62,78,60,45,99,65,34,29.87,29.79,7,1,49,0.00
2014-6-20,80,66,53,57,50,46,92,60,34,29.88,29.78,7,2,17,0.00
2014-6-21,80,63,48,56,52,46,99,69,43,29.88,29.77,6,1,13,0.00
2014-6-22,82,65,50,61,55,50,99,74,48,29.94,29.83,5,0,13,0.00
2014-6-23,86,68,52,65,58,52,99,74,46,30.06,29.94,3,0,9,0.00
2014-6-24,86,72,59,70,62,52,95,73,55,30.06,29.88,3,1,9,0.00
2014-6-25,93,78,64,79,71,59,99,80,61,29.89,29.73,3,1,11,0.00
2014-6-26,81,72,60,79,71,60,99,98,88,29.91,29.69,5,0,12,0.29
2014-6-27,88,69,58,66,60,50,99,74,44,30.11,29.91,3,0,10,0.00
2014-6-28,91,70,54,70,59,52,99,72,34,30.17,30.11,2,0,6,0.00
2014-6-29,91,74,56,73,65,56,99,78,47,30.16,29.97,2,0,7,0.00
2014-6-30,94,77,62,75,68,60,99,77,54,29.99,29.80,3,1,9,0.00
2014-7-1,92,80,67,80,75,67,99,85,63,29.83,29.66,3,1,9,0.00
2014-7-2,95,80,71,85,76,71,99,91,70,29.83,29.69,6,1,17,0.12
2014-7-3,94,78,70,85,76,70,99,95,71,29.93,29.78,5,0,12,0.29
2014-7-4,77,69,64,76,69,63,99,99,99,29.90,29.71,5,0,15,0.94
2014-7-5,83,69,58,63,58,51,99,72,43,29.90,29.69,9,2,23,0.24
2014-7-6,87,74,64,80,61,53,98,64,45,29.89,29.75,6,1,14,0.00
2014-7-7,91,75,68,79,71,66,99,88,63,29.77,29.58,5,1,11,0.15
2014-7-8,93,79,69,81,75,68,99,88,64,29.68,29.55,3,1,15,0.13
2014-7-9,91,80,69,77,73,69,99,81,53,29.87,29.52,5,1,13,0.14
2014-7-10,86,72,64,70,66,63,99,84,54,30.05,29.81,3,0,8,0.01
2014-7-11,85,71,62,68,63,59,99,80,53,30.14,30.05,3,0,7,0.00
2014-7-12,92,73,57,73,66,57,99,81,48,30.13,30.00,2,0,6,0.00
2014-7-13,88,76,67,77,71,65,99,84,65,30.01,29.78,5,1,13,0.02
2014-7-14,90,79,71,81,76,67,99,92,66,29.80,29.73,3,0,8,0.00
2014-7-15,89,77,71,85,76,71,99,97,78,29.76,29.61,5,0,12,0.72
2014-7-16,81,73,67,80,73,66,99,99,96,29.75,29.65,2,0,7,0.04
2014-7-17,85,70,62,71,66,62,99,86,54,29.97,29.75,3,0,9,0.00
2014-7-18,86,70,57,69,63,57,99,83,47,30.13,29.97,5,0,8,0.00
2014-7-19,81,69,59,74,67,59,99,93,73,30.18,30.11,2,0,6,0.00
2014-7-20,85,70,60,69,64,60,99,84,51,30.12,29.89,3,0,8,0.00
2014-7-21,88,71,60,71,65,60,99,84,52,30.12,30.02,3,0,8,0.00
2014-7-22,94,76,60,78,71,60,99,86,57,30.05,29.87,3,0,7,0.00
2014-7-23,95,81,70,82,77,70,99,88,61,29.88,29.61,6,1,12,0.37
2014-7-24,86,73,63,78,70,63,99,92,69,29.82,29.65,5,1,8,0.02
2014-7-25,86,70,55,68,64,55,99,84,53,29.89,29.81,5,1,25,0.00
2014-7-26,86,73,60,72,65,59,99,80,48,29.87,29.75,5,1,12,0.00
2014-7-27,83,72,65,80,71,64,99,98,89,29.79,29.54,2,0,8,0.37
2014-7-28,88,73,64,81,72,64,99,96,75,29.57,29.32,3,0,10,0.34
2014-7-29,81,68,60,68,64,60,99,88,59,29.84,29.43,3,0,10,0.01
2014-7-30,85,69,61,70,64,60,99,87,49,29.94,29.84,3,0,8,0.00
2014-7-31,86,70,56,70,64,56,99,84,57,30.04,29.94,3,0,10,0.00
2014-8-1,88,72,61,79,69,59,99,93,68,30.12,30.03,3,0,10,0.09
2014-8-2,76,69,62,75,68,62,99,94,70,30.12,30.03,2,0,8,0.00
2014-8-3,82,67,58,74,65,58,99,94,70,30.05,29.94,1,0,5,0.00
2014-8-4,90,72,60,77,69,60,99,92,58,29.95,29.87,3,0,8,0.00
2014-8-5,93,76,64,77,71,64,99,85,51,29.93,29.78,3,0,10,0.00
2014-8-6,86,74,66,72,67,60,99,80,42,29.79,29.68,6,1,13,0.00
2014-8-7,82,67,57,68,61,57,99,82,56,29.84,29.75,5,1,13,0.00
2014-8-8,87,70,55,66,61,55,99,78,46,29.92,29.83,5,1,14,0.00
2014-8-9,90,72,58,69,64,58,99,80,46,29.99,29.91,5,0,11,0.00
2014-8-10,92,73,59,69,64,58,99,78,43,30.03,29.97,3,0,8,0.00
2014-8-11,90,73,59,72,66,59,99,83,50,30.05,29.96,3,0,8,0.00
2014-8-12,84,72,61,72,66,37,99,83,35,30.02,29.92,3,0,10,0.00
2014-8-13,70,66,62,70,66,62,99,99,97,29.92,29.50,5,1,13,1.92
2014-8-14,78,65,55,65,60,54,99,85,53,29.77,29.56,5,1,13,0.01
2014-8-15,74,63,55,65,59,54,99,88,63,29.82,29.74,5,0,11,0.01
2014-8-16,80,67,56,64,61,56,99,81,51,29.87,29.80,3,0,13,0.00
2014-8-17,82,68,59,70,64,58,99,86,64,29.80,29.67,5,1,13,0.00
2014-8-18,81,66,55,64,58,54,99,78,47,29.78,29.69,7,1,17,0.00
2014-8-19,85,65,50,64,58,49,99,82,48,29.86,29.77,5,0,43,0.05
2014-8-20,88,67,53,70,61,53,99,85,51,29.97,29.86,2,0,7,0.00
2014-8-21,76,64,-2,69,62,-23,99,92,35,30.01,29.95,3,0,42,0.00
2014-8-22,72,65,60,71,64,59,99,98,89,30.02,29.98,3,0,8,0.22
2014-8-23,78,66,58,69,63,49,99,90,68,30.03,30.00,3,1,9,0.00
2014-8-24,87,67,54,72,63,54,99,89,57,30.05,30.00,3,0,8,0.00
2014-8-25,95,72,59,78,67,58,99,86,45,30.06,29.98,5,0,8,0.00
2014-8-26,93,73,60,79,69,60,99,87,54,30.05,29.92,2,0,6,0.00
2014-8-27,94,77,64,80,73,63,99,89,62,29.94,29.72,3,0,9,0.00
2014-8-28,83,72,63,74,63,54,99,73,47,29.90,29.70,7,2,17,0.00
2014-8-29,82,65,54,64,59,54,99,82,53,30.18,29.90,3,0,8,0.00
2014-8-30,82,66,53,66,61,53,100,87,54,30.20,28.84,2,0,11,0.05
2014-8-31,86,75,65,80,73,64,99,96,80,30.02,29.83,3,0,12,0.24
2014-9-1,92,77,70,84,75,69,99,94,67,29.89,29.79,3,0,9,0.01
2014-9-2,94,77,69,83,76,69,99,95,67,29.83,29.61,5,0,13,0.02
2014-9-3,88,74,63,75,68,63,99,84,51,29.99,29.59,6,1,13,0.02
2014-9-4,92,72,57,72,65,56,99,83,52,30.09,29.98,3,0,8,0.00
2014-9-5,93,77,63,80,73,62,99,89,63,30.05,29.86,3,0,9,0.00
2014-9-6,92,78,66,84,76,66,99,93,71,29.85,29.63,5,1,17,0.08
2014-9-7,83,68,56,66,60,53,99,81,44,30.11,29.82,5,1,13,0.06
2014-9-8,80,64,54,64,57,54,99,83,51,30.29,30.11,3,0,9,0.00
2014-9-9,74,61,52,64,57,52,99,86,56,30.28,30.11,3,0,8,0.00
2014-9-10,75,64,57,67,62,57,99,93,73,30.11,29.93,2,0,8,0.00
2014-9-11,76,68,59,75,68,59,99,98,91,29.94,29.66,3,0,10,0.00
2014-9-12,75,63,53,64,56,49,99,79,53,30.15,29.80,6,2,16,0.00
2014-9-13,64,57,48,60,55,47,99,94,82,30.21,30.01,3,1,9,0.18
2014-9-14,70,56,48,57,51,47,99,86,54,30.15,30.00,6,1,15,0.01
2014-9-15,71,53,42,56,49,42,99,87,53,30.16,30.00,2,0,7,0.00
2014-9-16,63,54,49,63,54,49,99,99,99,30.01,29.85,2,0,4,0.05
2014-9-17,75,57,45,62,52,45,99,87,54,29.92,29.83,3,0,10,0.01
2014-9-18,79,58,44,62,51,43,99,82,52,30.06,29.83,6,1,14,0.00
2014-9-19,66,50,40,47,41,37,99,74,38,30.33,30.06,3,1,8,0.00
2014-9-20,72,54,35,63,51,35,99,89,67,30.31,29.98,6,0,9,0.00
2014-9-21,82,67,54,79,66,54,99,98,88,29.99,29.45,2,0,8,0.46
2014-9-22,75,64,49,67,57,43,99,79,51,29.99,29.41,7,2,20,0.00
2014-9-23,73,55,41,57,49,41,99,84,51,30.33,29.98,3,0,9,0.00
2014-9-24,73,56,46,63,53,46,99,91,64,30.54,30.34,2,0,6,0.00
2014-9-25,64,54,46,61,52,46,99,95,80,30.46,30.16,2,0,6,0.00
2014-9-26,82,62,49,68,58,49,99,90,57,30.16,30.03,3,1,8,0.00
2014-9-27,90,65,51,72,61,50,99,88,50,30.09,30.01,3,0,9,0.00
2014-9-28,91,68,54,76,64,54,99,90,54,30.06,29.86,2,0,7,0.00
2014-9-29,84,64,57,74,62,57,99,94,60,30.02,29.84,3,0,13,0.00
2014-9-30,60,58,56,59,57,53,99,99,99,29.95,29.90,2,0,7,0.06
2014-10-1,59,57,57,58,57,51,99,99,99,30.03,29.92,3,1,10,0.29
2014-10-2,59,55,48,59,55,47,100,99,99,30.09,30.02,3,0,9,0.37
2014-10-3,71,54,45,62,52,45,99,94,67,30.06,29.81,3,0,7,0.01
2014-10-4,62,58,53,62,58,53,99,99,99,29.81,29.41,2,0,7,0.14
2014-10-5,68,54,40,61,49,40,99,86,49,29.87,29.44,5,1,13,0.00
2014-10-6,72,51,36,54,46,36,99,86,47,30.05,29.87,3,0,8,0.00
2014-10-7,77,61,47,71,58,47,99,91,62,30.06,29.86,3,1,13,0.02
2014-10-8,76,65,57,67,59,45,99,83,57,29.86,29.59,5,1,13,0.01
2014-10-9,68,54,43,49,43,40,98,68,40,29.92,29.76,6,1,15,0.00
2014-10-10,66,52,41,47,44,41,99,75,49,30.05,29.88,7,1,11,0.00
2014-10-11,51,45,42,51,45,42,99,99,96,30.04,29.96,1,0,5,0.20
2014-10-12,70,47,35,52,43,35,99,88,47,30.21,30.00,5,0,12,0.01
2014-10-13,62,50,34,58,48,34,99,95,82,30.26,30.15,2,0,6,0.00
2014-10-14,80,66,53,73,63,53,99,93,75,30.15,30.03,6,0,13,0.00
2014-10-15,85,69,59,78,67,58,99,94,74,30.05,29.85,3,0,10,0.00
2014-10-16,73,68,62,72,68,62,99,99,99,29.86,29.54,2,0,9,0.80
2014-10-17,76,63,57,71,60,57,99,91,62,29.79,29.49,3,0,10,0.00
2014-10-18,74,61,54,69,60,54,99,95,77,29.56,29.38,3,0,10,0.00
2014-10-19,60,51,41,58,41,29,97,71,51,29.86,29.46,8,3,20,0.00
2014-10-20,61,46,35,44,36,29,87,70,48,29.95,29.85,5,0,13,0.00
2014-10-21,67,53,44,60,52,43,99,95,78,29.98,29.80,5,1,12,0.00
2014-10-22,52,50,48,52,50,48,99,99,99,29.97,29.75,8,3,22,0.35
2014-10-23,54,51,48,54,50,47,99,99,99,29.75,29.54,9,3,22,2.60
2014-10-24,54,51,46,52,50,45,99,96,89,29.65,29.58,7,2,15,0.13
2014-10-25,74,53,40,56,48,40,99,85,45,29.84,29.38,3,0,10,0.00
2014-10-26,61,51,43,52,46,41,99,84,59,29.60,29.32,7,1,20,0.00
2014-10-27,68,49,39,49,43,39,99,83,49,29.93,29.59,7,1,17,0.00
2014-10-28,70,51,37,57,48,37,99,91,60,30.07,29.83,2,0,6,0.00
2014-10-29,68,55,50,67,54,49,99,96,72,29.84,29.66,6,0,14,0.11
2014-10-30,66,48,37,53,44,37,99,89,56,29.90,29.77,5,0,12,0.01
2014-10-31,55,47,40,45,42,40,99,85,66,29.96,29.87,3,0,8,0.00
2014-11-1,45,42,39,44,40,38,99,96,89,29.88,29.72,7,2,16,0.43
2014-11-2,46,40,39,40,31,20,99,71,44,29.76,29.55,14,6,30,0.02
2014-11-3,58,42,34,31,22,14,86,48,23,29.96,29.72,8,2,22,0.00
2014-11-4,66,47,31,46,39,30,99,77,41,30.04,29.88,2,0,8,0.00
2014-11-5,68,51,39,50,43,36,99,76,40,30.02,29.83,5,1,17,0.00
2014-11-6,48,44,38,47,44,38,99,99,91,30.02,29.41,2,0,6,0.33
2014-11-7,52,44,38,47,40,28,99,84,65,29.68,29.36,9,3,29,0.04
2014-11-8,54,40,32,33,29,26,85,65,38,29.85,29.69,5,1,13,0.00
2014-11-9,57,43,32,43,37,31,99,83,57,29.91,29.75,2,0,6,0.00
2014-11-10,67,42,30,53,36,29,99,83,41,30.10,29.91,2,0,7,0.00
2014-11-11,67,46,31,58,45,31,99,95,70,30.09,29.87,3,0,7,0.00
2014-11-12,69,54,42,63,52,37,99,92,68,29.91,29.72,5,0,14,0.00
2014-11-13,57,43,32,37,34,30,99,72,42,29.99,29.85,5,0,11,0.12
2014-11-14,51,36,27,39,30,22,99,80,45,30.00,29.80,7,1,16,0.13
2014-11-15,49,32,22,30,22,17,99,70,38,30.24,30.00,6,1,14,0.00
2014-11-16,45,33,22,32,27,18,99,78,50,30.28,30.02,3,0,13,0.00
2014-11-17,39,37,35,38,36,31,99,97,82,30.02,29.33,2,0,8,1.24
2014-11-18,42,33,24,38,21,6,99,66,40,29.80,29.35,7,2,23,0.01
2014-11-19,45,29,23,18,12,6,66,49,31,30.03,29.80,7,1,16,0.00
2014-11-20,50,35,26,29,21,13,74,58,39,29.94,29.64,7,1,20,0.00
2014-11-21,41,30,23,19,14,8,70,52,36,30.31,29.81,10,2,23,0.00
2014-11-22,44,33,20,23,15,8,78,49,28,30.33,29.94,5,1,13,0.00
2014-11-23,64,48,38,48,38,23,88,68,46,30.03,29.94,3,0,10,0.00
2014-11-24,68,57,39,68,56,36,99,97,86,29.99,29.43,6,2,14,0.35
2014-11-25,62,54,38,61,48,36,99,81,47,30.01,29.57,3,0,10,0.00
2014-11-26,42,37,33,40,35,32,99,94,79,30.10,29.61,5,0,10,0.08
2014-11-27,39,33,30,39,33,29,99,99,97,29.92,29.60,5,1,10,0.09
2014-11-28,43,29,21,36,27,20,99,91,62,30.12,29.90,7,1,14,0.06
2014-11-29,44,25,14,30,21,14,99,87,44,30.25,30.12,3,0,7,0.08
2014-11-30,49,38,26,48,37,26,99,98,84,30.15,29.90,2,0,7,0.26
2014-12-1,64,46,36,54,42,31,99,88,68,30.35,29.88,6,1,14,0.01
2014-12-2,37,33,30,34,27,20,99,77,60,30.63,30.31,6,2,13,0.00
2014-12-3,46,38,33,46,37,30,99,97,73,30.30,29.75,5,1,15,0.65
2014-12-4,49,35,24,31,27,21,93,73,47,30.46,29.98,6,1,21,0.00
2014-12-5,43,30,20,32,26,19,99,85,58,30.61,30.36,3,1,8,0.00
2014-12-6,37,34,32,36,34,32,99,99,99,30.35,30.05,6,1,14,1.11
2014-12-7,42,31,18,36,20,7,99,68,41,30.63,30.16,12,5,23,0.01
2014-12-8,25,20,15,23,12,0,92,70,52,30.70,30.44,5,1,9,0.00
2014-12-9,40,34,24,40,34,23,99,99,93,30.44,29.46,8,2,21,1.21
2014-12-10,39,38,37,39,38,36,99,99,99,29.50,29.33,6,2,15,0.28
2014-12-11,37,34,31,37,34,31,99,99,99,29.68,29.33,3,0,8,0.05
2014-12-12,43,34,28,37,32,28,99,94,77,29.78,29.68,5,1,12,0.02
2014-12-13,48,35,30,35,31,29,99,85,60,29.76,29.67,7,2,15,0.00
2014-12-14,51,35,28,37,32,28,99,87,55,29.82,29.68,8,1,15,0.00
2014-12-15,51,33,26,38,30,26,99,89,55,30.06,29.81,6,1,43,0.00
2014-12-16,38,35,28,38,34,28,99,98,92,30.07,29.83,3,0,6,0.01
2014-12-17,48,41,36,47,41,36,99,99,93,29.83,29.59,5,1,11,0.34
2014-12-18,46,39,35,40,35,31,99,87,71,29.76,29.60,8,2,20,0.04
2014-12-19,38,33,27,31,27,23,88,79,66,30.05,29.75,8,2,15,0.00
2014-12-20,36,30,25,31,26,23,93,84,64,30.22,30.06,5,1,9,0.00
2014-12-21,36,32,30,32,29,26,98,88,79,30.28,30.18,3,1,16,0.00
2014-12-22,41,36,32,39,34,31,99,95,80,30.31,30.19,2,1,8,0.04
2014-12-23,44,40,36,43,40,36,99,99,99,30.20,30.08,5,1,9,0.24
2014-12-24,42,40,39,42,40,38,99,99,99,30.08,29.45,2,0,8,0.32
2014-12-25,57,46,40,54,40,33,99,82,57,29.85,29.35,8,2,20,0.09
2014-12-26,57,41,34,41,35,32,99,79,51,30.06,29.85,5,1,12,0.00
2014-12-27,61,41,32,43,36,31,99,85,51,30.11,29.90,3,0,9,0.00
2014-12-28,53,44,37,50,41,32,99,87,73,29.89,29.63,6,1,13,0.04
2014-12-29,47,34,27,32,24,14,94,67,41,30.12,29.88,6,1,14,0.00
2014-12-30,37,24,16,17,9,1,80,55,32,30.26,30.12,7,1,15,0.00
2014-12-31,37,20,12,16,8,3,83,60,32,30.22,30.01,7,1,13,0.00
2015-1-1,36,24,12,16,11,8,89,59,36,30.01,29.79,6,1,13,0.00
2015-1-2,41,32,24,24,19,12,74,57,47,30.36,29.82,6,1,17,0.00